sensor_id;sensor_type;location;lat;lon;timestamp;P1;durP1;ratioP1;P2;durP2;ratioP2
15466;SDS011;7834;49.452;11.056;2023-07-20T00:02:01;6.32;;;5.20;;
15466;SDS011;7834;49.452;11.056;2023-07-20T00:04:27;6.40;;;4.57;;
15466;SDS011;7834;49.452;11.056;2023-07-20T00:06:53;6.60;;;5.13;;
15466;SDS011;7834;49.452;11.056;2023-07-20T00:09:20;7.20;;;4.93;;
15466;SDS011;7834;49.452;11.056;2023-07-20T00:11:50;5.45;;;4.78;;
15466;SDS011;7834;49.452;11.056;2023-07-20T00:14:17;7.32;;;5.00;;
15466;SDS011;7834;49.452;11.056;2023-07-20T00:16:43;7.82;;;5.18;;
15466;SDS011;7834;49.452;11.056;2023-07-20T00:19:09;8.07;;;5.05;;
15466;SDS011;7834;49.452;11.056;2023-07-20T00:21:35;6.70;;;4.93;;
15466;SDS011;7834;49.452;11.056;2023-07-20T00:24:02;9.85;;;5.18;;
15466;SDS011;7834;49.452;11.056;2023-07-20T00:26:28;7.43;;;5.38;;
15466;SDS011;7834;49.452;11.056;2023-07-20T00:28:54;8.32;;;5.20;;
15466;SDS011;7834;49.452;11.056;2023-07-20T00:31:20;7.88;;;5.22;;
15466;SDS011;7834;49.452;11.056;2023-07-20T00:33:47;12.38;;;5.80;;
15466;SDS011;7834;49.452;11.056;2023-07-20T00:36:13;8.20;;;5.22;;
15466;SDS011;7834;49.452;11.056;2023-07-20T00:38:39;5.90;;;5.30;;
15466;SDS011;7834;49.452;11.056;2023-07-20T00:41:06;8.88;;;5.40;;
15466;SDS011;7834;49.452;11.056;2023-07-20T00:43:32;10.68;;;5.35;;
15466;SDS011;7834;49.452;11.056;2023-07-20T00:45:58;8.43;;;5.80;;
15466;SDS011;7834;49.452;11.056;2023-07-20T00:48:25;5.30;;;4.75;;
15466;SDS011;7834;49.452;11.056;2023-07-20T00:50:51;6.82;;;5.70;;
15466;SDS011;7834;49.452;11.056;2023-07-20T00:53:17;7.78;;;5.30;;
15466;SDS011;7834;49.452;11.056;2023-07-20T00:55:44;6.32;;;5.25;;
15466;SDS011;7834;49.452;11.056;2023-07-20T00:58:10;8.68;;;5.63;;
15466;SDS011;7834;49.452;11.056;2023-07-20T01:00:36;9.55;;;5.60;;
15466;SDS011;7834;49.452;11.056;2023-07-20T01:03:02;7.45;;;5.47;;
15466;SDS011;7834;49.452;11.056;2023-07-20T01:08:16;7.55;;;5.65;;
15466;SDS011;7834;49.452;11.056;2023-07-20T01:10:44;7.97;;;5.70;;
15466;SDS011;7834;49.452;11.056;2023-07-20T01:13:12;7.60;;;5.78;;
15466;SDS011;7834;49.452;11.056;2023-07-20T01:15:40;6.78;;;6.00;;
15466;SDS011;7834;49.452;11.056;2023-07-20T01:18:06;9.57;;;5.95;;
15466;SDS011;7834;49.452;11.056;2023-07-20T01:20:33;9.65;;;5.90;;
15466;SDS011;7834;49.452;11.056;2023-07-20T01:33:40;9.70;;;5.53;;
15466;SDS011;7834;49.452;11.056;2023-07-20T01:36:07;7.68;;;5.53;;
15466;SDS011;7834;49.452;11.056;2023-07-20T01:38:34;9.23;;;5.53;;
15466;SDS011;7834;49.452;11.056;2023-07-20T01:41:00;7.40;;;5.68;;
15466;SDS011;7834;49.452;11.056;2023-07-20T01:43:27;9.30;;;5.90;;
15466;SDS011;7834;49.452;11.056;2023-07-20T01:45:53;9.98;;;5.53;;
15466;SDS011;7834;49.452;11.056;2023-07-20T01:48:19;8.52;;;5.75;;
15466;SDS011;7834;49.452;11.056;2023-07-20T01:50:45;9.18;;;6.05;;
15466;SDS011;7834;49.452;11.056;2023-07-20T01:53:11;9.07;;;5.35;;
15466;SDS011;7834;49.452;11.056;2023-07-20T01:55:37;9.40;;;5.80;;
15466;SDS011;7834;49.452;11.056;2023-07-20T01:58:03;6.75;;;5.95;;
15466;SDS011;7834;49.452;11.056;2023-07-20T02:00:40;11.25;;;6.00;;
15466;SDS011;7834;49.452;11.056;2023-07-20T02:03:06;7.93;;;6.10;;
15466;SDS011;7834;49.452;11.056;2023-07-20T02:05:32;9.23;;;5.63;;
15466;SDS011;7834;49.452;11.056;2023-07-20T02:07:58;8.40;;;5.95;;
15466;SDS011;7834;49.452;11.056;2023-07-20T02:10:24;7.65;;;6.15;;
15466;SDS011;7834;49.452;11.056;2023-07-20T02:12:50;8.52;;;5.95;;
15466;SDS011;7834;49.452;11.056;2023-07-20T02:15:16;9.00;;;6.57;;
15466;SDS011;7834;49.452;11.056;2023-07-20T02:17:43;9.05;;;6.45;;
15466;SDS011;7834;49.452;11.056;2023-07-20T02:20:10;8.20;;;6.05;;
15466;SDS011;7834;49.452;11.056;2023-07-20T02:22:36;7.35;;;6.30;;
15466;SDS011;7834;49.452;11.056;2023-07-20T02:25:06;8.90;;;5.95;;
15466;SDS011;7834;49.452;11.056;2023-07-20T02:27:35;9.65;;;6.40;;
15466;SDS011;7834;49.452;11.056;2023-07-20T02:30:01;10.77;;;6.45;;
15466;SDS011;7834;49.452;11.056;2023-07-20T02:32:28;6.68;;;5.88;;
15466;SDS011;7834;49.452;11.056;2023-07-20T02:34:54;6.95;;;5.72;;
15466;SDS011;7834;49.452;11.056;2023-07-20T02:37:20;9.55;;;6.55;;
15466;SDS011;7834;49.452;11.056;2023-07-20T02:39:46;10.30;;;6.60;;
15466;SDS011;7834;49.452;11.056;2023-07-20T02:42:12;11.25;;;6.50;;
15466;SDS011;7834;49.452;11.056;2023-07-20T02:44:41;9.00;;;6.43;;
15466;SDS011;7834;49.452;11.056;2023-07-20T02:47:07;9.18;;;6.32;;
15466;SDS011;7834;49.452;11.056;2023-07-20T02:49:34;10.55;;;6.45;;
15466;SDS011;7834;49.452;11.056;2023-07-20T02:52:00;9.20;;;6.30;;
15466;SDS011;7834;49.452;11.056;2023-07-20T02:54:26;8.20;;;6.40;;
15466;SDS011;7834;49.452;11.056;2023-07-20T02:56:52;9.38;;;6.15;;
15466;SDS011;7834;49.452;11.056;2023-07-20T02:59:18;7.45;;;5.80;;
15466;SDS011;7834;49.452;11.056;2023-07-20T03:01:44;10.40;;;6.00;;
15466;SDS011;7834;49.452;11.056;2023-07-20T03:04:10;6.10;;;5.50;;
15466;SDS011;7834;49.452;11.056;2023-07-20T03:06:36;8.18;;;5.90;;
15466;SDS011;7834;49.452;11.056;2023-07-20T03:09:02;8.25;;;5.50;;
15466;SDS011;7834;49.452;11.056;2023-07-20T03:11:29;5.32;;;4.82;;
15466;SDS011;7834;49.452;11.056;2023-07-20T03:13:55;8.20;;;5.90;;
15466;SDS011;7834;49.452;11.056;2023-07-20T03:16:21;9.63;;;5.35;;
15466;SDS011;7834;49.452;11.056;2023-07-20T03:18:47;9.25;;;5.70;;
15466;SDS011;7834;49.452;11.056;2023-07-20T03:21:16;7.55;;;5.50;;
15466;SDS011;7834;49.452;11.056;2023-07-20T03:23:42;10.00;;;6.03;;
15466;SDS011;7834;49.452;11.056;2023-07-20T03:26:08;7.15;;;5.35;;
15466;SDS011;7834;49.452;11.056;2023-07-20T03:28:35;7.38;;;5.75;;
15466;SDS011;7834;49.452;11.056;2023-07-20T03:31:01;10.98;;;5.47;;
15466;SDS011;7834;49.452;11.056;2023-07-20T03:33:28;8.73;;;5.15;;
15466;SDS011;7834;49.452;11.056;2023-07-20T03:35:54;7.10;;;5.15;;
15466;SDS011;7834;49.452;11.056;2023-07-20T03:38:21;7.22;;;4.82;;
15466;SDS011;7834;49.452;11.056;2023-07-20T03:40:50;10.23;;;5.00;;
15466;SDS011;7834;49.452;11.056;2023-07-20T03:43:16;6.18;;;4.72;;
15466;SDS011;7834;49.452;11.056;2023-07-20T03:45:43;6.25;;;4.78;;
15466;SDS011;7834;49.452;11.056;2023-07-20T03:48:10;10.73;;;5.47;;
15466;SDS011;7834;49.452;11.056;2023-07-20T03:50:36;8.43;;;4.97;;
15466;SDS011;7834;49.452;11.056;2023-07-20T03:53:02;11.90;;;4.90;;
15466;SDS011;7834;49.452;11.056;2023-07-20T03:55:28;7.80;;;5.50;;
15466;SDS011;7834;49.452;11.056;2023-07-20T03:57:54;6.85;;;5.80;;
15466;SDS011;7834;49.452;11.056;2023-07-20T04:00:20;8.07;;;5.28;;
15466;SDS011;7834;49.452;11.056;2023-07-20T04:02:46;8.80;;;5.32;;
15466;SDS011;7834;49.452;11.056;2023-07-20T04:05:12;10.75;;;5.25;;
15466;SDS011;7834;49.452;11.056;2023-07-20T04:07:38;6.43;;;4.70;;
15466;SDS011;7834;49.452;11.056;2023-07-20T04:10:05;13.18;;;5.32;;
15466;SDS011;7834;49.452;11.056;2023-07-20T04:12:31;11.02;;;5.13;;
15466;SDS011;7834;49.452;11.056;2023-07-20T04:14:57;12.32;;;5.60;;
15466;SDS011;7834;49.452;11.056;2023-07-20T04:17:23;8.10;;;4.80;;
15466;SDS011;7834;49.452;11.056;2023-07-20T04:19:49;11.05;;;5.40;;
15466;SDS011;7834;49.452;11.056;2023-07-20T04:22:15;8.85;;;5.25;;
15466;SDS011;7834;49.452;11.056;2023-07-20T04:24:44;8.30;;;5.07;;
15466;SDS011;7834;49.452;11.056;2023-07-20T04:27:10;8.50;;;5.00;;
15466;SDS011;7834;49.452;11.056;2023-07-20T04:29:36;8.95;;;4.95;;
15466;SDS011;7834;49.452;11.056;2023-07-20T04:32:02;10.35;;;5.53;;
15466;SDS011;7834;49.452;11.056;2023-07-20T04:34:28;6.95;;;5.00;;
15466;SDS011;7834;49.452;11.056;2023-07-20T04:36:54;14.60;;;6.50;;
15466;SDS011;7834;49.452;11.056;2023-07-20T04:39:20;8.77;;;5.28;;
15466;SDS011;7834;49.452;11.056;2023-07-20T04:41:46;10.65;;;5.35;;
15466;SDS011;7834;49.452;11.056;2023-07-20T04:44:13;9.65;;;4.68;;
15466;SDS011;7834;49.452;11.056;2023-07-20T04:46:39;7.43;;;4.90;;
15466;SDS011;7834;49.452;11.056;2023-07-20T04:49:05;7.65;;;4.93;;
15466;SDS011;7834;49.452;11.056;2023-07-20T04:51:31;8.88;;;5.18;;
15466;SDS011;7834;49.452;11.056;2023-07-20T04:53:57;8.63;;;4.93;;
15466;SDS011;7834;49.452;11.056;2023-07-20T04:56:24;10.52;;;5.18;;
15466;SDS011;7834;49.452;11.056;2023-07-20T04:58:50;8.85;;;4.75;;
15466;SDS011;7834;49.452;11.056;2023-07-20T05:01:16;15.57;;;4.97;;
15466;SDS011;7834;49.452;11.056;2023-07-20T05:03:42;12.80;;;5.28;;
15466;SDS011;7834;49.452;11.056;2023-07-20T05:06:08;6.90;;;4.82;;
15466;SDS011;7834;49.452;11.056;2023-07-20T05:08:34;10.07;;;5.25;;
15466;SDS011;7834;49.452;11.056;2023-07-20T05:11:01;8.95;;;4.85;;
15466;SDS011;7834;49.452;11.056;2023-07-20T05:13:27;7.93;;;5.28;;
15466;SDS011;7834;49.452;11.056;2023-07-20T05:15:53;10.63;;;5.05;;
15466;SDS011;7834;49.452;11.056;2023-07-20T05:18:19;12.93;;;5.30;;
15466;SDS011;7834;49.452;11.056;2023-07-20T05:20:49;8.20;;;4.93;;
15466;SDS011;7834;49.452;11.056;2023-07-20T05:23:18;11.57;;;5.03;;
15466;SDS011;7834;49.452;11.056;2023-07-20T05:25:47;7.50;;;4.93;;
15466;SDS011;7834;49.452;11.056;2023-07-20T05:28:19;15.85;;;5.10;;
15466;SDS011;7834;49.452;11.056;2023-07-20T05:30:45;10.25;;;5.00;;
15466;SDS011;7834;49.452;11.056;2023-07-20T05:33:11;10.63;;;4.93;;
15466;SDS011;7834;49.452;11.056;2023-07-20T05:35:37;9.95;;;4.82;;
15466;SDS011;7834;49.452;11.056;2023-07-20T05:38:03;11.43;;;5.18;;
15466;SDS011;7834;49.452;11.056;2023-07-20T05:40:30;9.73;;;4.97;;
15466;SDS011;7834;49.452;11.056;2023-07-20T05:42:56;8.50;;;4.88;;
15466;SDS011;7834;49.452;11.056;2023-07-20T05:45:22;7.80;;;4.47;;
15466;SDS011;7834;49.452;11.056;2023-07-20T05:47:48;7.28;;;4.45;;
15466;SDS011;7834;49.452;11.056;2023-07-20T05:50:14;7.63;;;3.90;;
15466;SDS011;7834;49.452;11.056;2023-07-20T05:52:40;9.90;;;6.70;;
15466;SDS011;7834;49.452;11.056;2023-07-20T05:55:07;7.63;;;4.72;;
15466;SDS011;7834;49.452;11.056;2023-07-20T05:57:33;7.68;;;4.30;;
15466;SDS011;7834;49.452;11.056;2023-07-20T06:00:00;8.38;;;3.92;;
15466;SDS011;7834;49.452;11.056;2023-07-20T06:02:26;9.13;;;4.43;;
15466;SDS011;7834;49.452;11.056;2023-07-20T06:04:52;7.20;;;3.97;;
15466;SDS011;7834;49.452;11.056;2023-07-20T06:07:19;6.50;;;3.90;;
15466;SDS011;7834;49.452;11.056;2023-07-20T06:09:45;5.65;;;3.88;;
15466;SDS011;7834;49.452;11.056;2023-07-20T06:12:11;7.57;;;4.03;;
15466;SDS011;7834;49.452;11.056;2023-07-20T06:14:37;5.95;;;3.75;;
15466;SDS011;7834;49.452;11.056;2023-07-20T06:17:03;5.60;;;3.72;;
15466;SDS011;7834;49.452;11.056;2023-07-20T06:19:29;6.05;;;3.58;;
15466;SDS011;7834;49.452;11.056;2023-07-20T06:21:55;7.45;;;3.70;;
15466;SDS011;7834;49.452;11.056;2023-07-20T06:24:21;6.82;;;3.47;;
15466;SDS011;7834;49.452;11.056;2023-07-20T06:26:47;9.02;;;3.67;;
15466;SDS011;7834;49.452;11.056;2023-07-20T06:29:13;6.82;;;3.97;;
15466;SDS011;7834;49.452;11.056;2023-07-20T06:31:39;7.32;;;3.90;;
15466;SDS011;7834;49.452;11.056;2023-07-20T06:34:05;5.65;;;4.07;;
15466;SDS011;7834;49.452;11.056;2023-07-20T06:36:32;6.60;;;4.40;;
15466;SDS011;7834;49.452;11.056;2023-07-20T06:38:58;8.82;;;4.50;;
15466;SDS011;7834;49.452;11.056;2023-07-20T06:41:24;8.70;;;4.30;;
15466;SDS011;7834;49.452;11.056;2023-07-20T06:43:50;6.45;;;4.25;;
15466;SDS011;7834;49.452;11.056;2023-07-20T06:46:17;8.57;;;4.65;;
15466;SDS011;7834;49.452;11.056;2023-07-20T06:48:43;8.63;;;4.20;;
15466;SDS011;7834;49.452;11.056;2023-07-20T06:51:09;6.03;;;4.75;;
15466;SDS011;7834;49.452;11.056;2023-07-20T06:53:35;7.68;;;4.50;;
15466;SDS011;7834;49.452;11.056;2023-07-20T06:56:01;6.95;;;4.22;;
15466;SDS011;7834;49.452;11.056;2023-07-20T06:58:27;16.55;;;10.68;;
15466;SDS011;7834;49.452;11.056;2023-07-20T07:00:53;8.75;;;4.10;;
15466;SDS011;7834;49.452;11.056;2023-07-20T07:03:19;7.32;;;4.13;;
15466;SDS011;7834;49.452;11.056;2023-07-20T07:05:46;8.80;;;4.05;;
15466;SDS011;7834;49.452;11.056;2023-07-20T07:08:12;8.50;;;4.20;;
15466;SDS011;7834;49.452;11.056;2023-07-20T07:10:38;7.68;;;3.80;;
15466;SDS011;7834;49.452;11.056;2023-07-20T07:13:04;7.57;;;3.70;;
15466;SDS011;7834;49.452;11.056;2023-07-20T07:15:30;7.65;;;3.72;;
15466;SDS011;7834;49.452;11.056;2023-07-20T07:17:57;7.95;;;3.40;;
15466;SDS011;7834;49.452;11.056;2023-07-20T07:20:24;6.85;;;3.08;;
15466;SDS011;7834;49.452;11.056;2023-07-20T07:22:51;4.75;;;3.10;;
15466;SDS011;7834;49.452;11.056;2023-07-20T07:25:18;5.80;;;3.53;;
15466;SDS011;7834;49.452;11.056;2023-07-20T07:27:44;7.93;;;3.15;;
15466;SDS011;7834;49.452;11.056;2023-07-20T07:30:11;5.78;;;2.97;;
15466;SDS011;7834;49.452;11.056;2023-07-20T07:32:37;4.82;;;3.00;;
15466;SDS011;7834;49.452;11.056;2023-07-20T07:35:03;8.50;;;3.20;;
15466;SDS011;7834;49.452;11.056;2023-07-20T07:37:29;8.57;;;3.13;;
15466;SDS011;7834;49.452;11.056;2023-07-20T07:39:56;5.90;;;3.15;;
15466;SDS011;7834;49.452;11.056;2023-07-20T07:42:22;4.47;;;3.08;;
15466;SDS011;7834;49.452;11.056;2023-07-20T07:44:48;7.97;;;3.67;;
15466;SDS011;7834;49.452;11.056;2023-07-20T07:47:14;7.30;;;3.20;;
15466;SDS011;7834;49.452;11.056;2023-07-20T07:49:40;5.35;;;2.70;;
15466;SDS011;7834;49.452;11.056;2023-07-20T07:52:06;4.68;;;2.85;;
15466;SDS011;7834;49.452;11.056;2023-07-20T07:54:33;5.88;;;2.90;;
15466;SDS011;7834;49.452;11.056;2023-07-20T07:56:59;4.05;;;2.85;;
15466;SDS011;7834;49.452;11.056;2023-07-20T07:59:25;5.60;;;2.75;;
15466;SDS011;7834;49.452;11.056;2023-07-20T08:01:51;6.35;;;2.50;;
15466;SDS011;7834;49.452;11.056;2023-07-20T08:04:17;5.28;;;3.30;;
15466;SDS011;7834;49.452;11.056;2023-07-20T08:06:44;4.43;;;2.90;;
15466;SDS011;7834;49.452;11.056;2023-07-20T08:09:10;4.20;;;2.60;;
15466;SDS011;7834;49.452;11.056;2023-07-20T08:11:38;5.95;;;2.80;;
15466;SDS011;7834;49.452;11.056;2023-07-20T08:14:04;5.28;;;2.60;;
15466;SDS011;7834;49.452;11.056;2023-07-20T08:16:30;4.20;;;2.83;;
15466;SDS011;7834;49.452;11.056;2023-07-20T08:18:56;6.05;;;3.03;;
15466;SDS011;7834;49.452;11.056;2023-07-20T08:21:22;4.85;;;3.13;;
15466;SDS011;7834;49.452;11.056;2023-07-20T08:23:48;9.50;;;3.42;;
15466;SDS011;7834;49.452;11.056;2023-07-20T08:26:14;3.42;;;2.50;;
15466;SDS011;7834;49.452;11.056;2023-07-20T08:28:42;5.03;;;2.65;;
15466;SDS011;7834;49.452;11.056;2023-07-20T08:31:08;4.43;;;2.60;;
15466;SDS011;7834;49.452;11.056;2023-07-20T08:33:34;4.22;;;2.25;;
15466;SDS011;7834;49.452;11.056;2023-07-20T08:36:00;3.80;;;2.80;;
15466;SDS011;7834;49.452;11.056;2023-07-20T08:38:28;3.38;;;2.53;;
15466;SDS011;7834;49.452;11.056;2023-07-20T08:40:54;4.20;;;2.50;;
15466;SDS011;7834;49.452;11.056;2023-07-20T08:43:20;6.47;;;2.40;;
15466;SDS011;7834;49.452;11.056;2023-07-20T08:45:49;3.95;;;2.50;;
15466;SDS011;7834;49.452;11.056;2023-07-20T08:48:15;3.95;;;2.70;;
15466;SDS011;7834;49.452;11.056;2023-07-20T08:50:42;3.00;;;2.47;;
15466;SDS011;7834;49.452;11.056;2023-07-20T08:53:09;10.85;;;3.17;;
15466;SDS011;7834;49.452;11.056;2023-07-20T08:55:36;3.78;;;2.20;;
15466;SDS011;7834;49.452;11.056;2023-07-20T08:58:02;6.85;;;2.55;;
15466;SDS011;7834;49.452;11.056;2023-07-20T09:00:28;2.97;;;2.33;;
15466;SDS011;7834;49.452;11.056;2023-07-20T09:02:54;3.00;;;2.20;;
15466;SDS011;7834;49.452;11.056;2023-07-20T09:05:22;9.13;;;5.50;;
15466;SDS011;7834;49.452;11.056;2023-07-20T09:07:48;9.38;;;2.17;;
15466;SDS011;7834;49.452;11.056;2023-07-20T09:10:14;2.85;;;1.85;;
15466;SDS011;7834;49.452;11.056;2023-07-20T09:12:42;8.52;;;2.47;;
15466;SDS011;7834;49.452;11.056;2023-07-20T09:15:08;2.80;;;1.90;;
15466;SDS011;7834;49.452;11.056;2023-07-20T09:17:35;2.33;;;2.10;;
15466;SDS011;7834;49.452;11.056;2023-07-20T09:20:06;5.00;;;2.25;;
15466;SDS011;7834;49.452;11.056;2023-07-20T09:22:35;4.00;;;2.25;;
15466;SDS011;7834;49.452;11.056;2023-07-20T09:25:03;5.53;;;2.35;;
15466;SDS011;7834;49.452;11.056;2023-07-20T09:27:38;5.68;;;2.22;;
15466;SDS011;7834;49.452;11.056;2023-07-20T09:30:04;2.78;;;1.80;;
15466;SDS011;7834;49.452;11.056;2023-07-20T09:32:42;2.80;;;1.80;;
15466;SDS011;7834;49.452;11.056;2023-07-20T09:35:12;3.72;;;1.77;;
15466;SDS011;7834;49.452;11.056;2023-07-20T09:37:38;3.33;;;2.10;;
15466;SDS011;7834;49.452;11.056;2023-07-20T09:40:06;3.03;;;1.83;;
15466;SDS011;7834;49.452;11.056;2023-07-20T09:42:34;3.65;;;2.03;;
15466;SDS011;7834;49.452;11.056;2023-07-20T09:45:00;2.33;;;1.85;;
15466;SDS011;7834;49.452;11.056;2023-07-20T09:47:27;4.85;;;2.08;;
15466;SDS011;7834;49.452;11.056;2023-07-20T09:50:00;2.00;;;1.80;;
15466;SDS011;7834;49.452;11.056;2023-07-20T09:52:26;3.38;;;1.77;;
15466;SDS011;7834;49.452;11.056;2023-07-20T09:54:52;2.58;;;1.80;;
15466;SDS011;7834;49.452;11.056;2023-07-20T09:57:20;2.03;;;1.73;;
15466;SDS011;7834;49.452;11.056;2023-07-20T09:59:46;3.35;;;1.60;;
15466;SDS011;7834;49.452;11.056;2023-07-20T10:02:16;3.45;;;1.70;;
15466;SDS011;7834;49.452;11.056;2023-07-20T10:04:46;2.00;;;1.80;;
15466;SDS011;7834;49.452;11.056;2023-07-20T10:07:13;1.90;;;1.50;;
15466;SDS011;7834;49.452;11.056;2023-07-20T10:09:39;1.88;;;1.63;;
15466;SDS011;7834;49.452;11.056;2023-07-20T10:12:06;3.53;;;1.83;;
15466;SDS011;7834;49.452;11.056;2023-07-20T10:14:33;1.95;;;1.73;;
15466;SDS011;7834;49.452;11.056;2023-07-20T10:17:01;3.00;;;2.00;;
15466;SDS011;7834;49.452;11.056;2023-07-20T10:19:31;4.47;;;1.90;;
15466;SDS011;7834;49.452;11.056;2023-07-20T10:22:10;1.92;;;1.63;;
15466;SDS011;7834;49.452;11.056;2023-07-20T10:24:38;6.00;;;1.58;;
15466;SDS011;7834;49.452;11.056;2023-07-20T10:27:04;4.45;;;1.85;;
15466;SDS011;7834;49.452;11.056;2023-07-20T10:29:31;2.25;;;1.90;;
15466;SDS011;7834;49.452;11.056;2023-07-20T10:31:57;3.38;;;1.90;;
15466;SDS011;7834;49.452;11.056;2023-07-20T10:34:23;2.38;;;1.80;;
15466;SDS011;7834;49.452;11.056;2023-07-20T10:36:50;2.88;;;1.90;;
15466;SDS011;7834;49.452;11.056;2023-07-20T10:39:24;4.13;;;2.08;;
15466;SDS011;7834;49.452;11.056;2023-07-20T10:41:59;2.45;;;1.90;;
15466;SDS011;7834;49.452;11.056;2023-07-20T10:44:25;4.57;;;1.60;;
15466;SDS011;7834;49.452;11.056;2023-07-20T10:46:51;3.90;;;3.15;;
15466;SDS011;7834;49.452;11.056;2023-07-20T10:49:24;2.67;;;2.05;;
15466;SDS011;7834;49.452;11.056;2023-07-20T10:51:56;4.85;;;2.00;;
15466;SDS011;7834;49.452;11.056;2023-07-20T10:56:49;2.65;;;1.88;;
15466;SDS011;7834;49.452;11.056;2023-07-20T10:59:19;2.53;;;1.90;;
15466;SDS011;7834;49.452;11.056;2023-07-20T11:01:46;5.07;;;1.90;;
15466;SDS011;7834;49.452;11.056;2023-07-20T11:04:16;4.88;;;1.80;;
15466;SDS011;7834;49.452;11.056;2023-07-20T11:06:47;7.53;;;2.15;;
15466;SDS011;7834;49.452;11.056;2023-07-20T11:09:21;2.00;;;1.80;;
15466;SDS011;7834;49.452;11.056;2023-07-20T11:11:54;6.68;;;1.83;;
15466;SDS011;7834;49.452;11.056;2023-07-20T11:14:34;2.15;;;1.73;;
15466;SDS011;7834;49.452;11.056;2023-07-20T11:17:14;2.70;;;1.73;;
15466;SDS011;7834;49.452;11.056;2023-07-20T11:19:45;8.73;;;6.22;;
15466;SDS011;7834;49.452;11.056;2023-07-20T11:22:13;2.17;;;1.70;;
15466;SDS011;7834;49.452;11.056;2023-07-20T11:24:41;3.40;;;1.85;;
15466;SDS011;7834;49.452;11.056;2023-07-20T11:27:08;1.55;;;1.45;;
15466;SDS011;7834;49.452;11.056;2023-07-20T11:29:34;2.03;;;1.73;;
15466;SDS011;7834;49.452;11.056;2023-07-20T11:32:01;2.95;;;2.10;;
15466;SDS011;7834;49.452;11.056;2023-07-20T11:34:30;5.57;;;2.15;;
15466;SDS011;7834;49.452;11.056;2023-07-20T11:36:57;2.05;;;1.88;;
15466;SDS011;7834;49.452;11.056;2023-07-20T11:39:23;2.42;;;1.92;;
15466;SDS011;7834;49.452;11.056;2023-07-20T11:41:59;2.63;;;2.10;;
15466;SDS011;7834;49.452;11.056;2023-07-20T11:44:28;4.95;;;1.88;;
15466;SDS011;7834;49.452;11.056;2023-07-20T11:49:28;2.10;;;1.70;;
15466;SDS011;7834;49.452;11.056;2023-07-20T11:51:54;3.05;;;1.80;;
15466;SDS011;7834;49.452;11.056;2023-07-20T11:54:21;2.20;;;1.70;;
15466;SDS011;7834;49.452;11.056;2023-07-20T11:56:47;2.65;;;1.77;;
15466;SDS011;7834;49.452;11.056;2023-07-20T11:59:13;2.40;;;1.80;;
15466;SDS011;7834;49.452;11.056;2023-07-20T12:01:39;1.90;;;1.67;;
15466;SDS011;7834;49.452;11.056;2023-07-20T12:04:05;2.08;;;1.70;;
15466;SDS011;7834;49.452;11.056;2023-07-20T12:06:32;2.40;;;1.63;;
15466;SDS011;7834;49.452;11.056;2023-07-20T12:08:58;2.25;;;1.80;;
15466;SDS011;7834;49.452;11.056;2023-07-20T12:13:57;1.80;;;1.60;;
15466;SDS011;7834;49.452;11.056;2023-07-20T12:16:26;2.00;;;1.40;;
15466;SDS011;7834;49.452;11.056;2023-07-20T12:18:58;1.70;;;1.58;;
15466;SDS011;7834;49.452;11.056;2023-07-20T12:21:24;1.60;;;1.35;;
15466;SDS011;7834;49.452;11.056;2023-07-20T12:23:51;2.55;;;1.60;;
15466;SDS011;7834;49.452;11.056;2023-07-20T12:26:17;1.98;;;1.70;;
15466;SDS011;7834;49.452;11.056;2023-07-20T12:28:43;2.00;;;1.80;;
15466;SDS011;7834;49.452;11.056;2023-07-20T12:31:09;2.72;;;1.35;;
15466;SDS011;7834;49.452;11.056;2023-07-20T12:33:36;2.85;;;1.38;;
15466;SDS011;7834;49.452;11.056;2023-07-20T12:36:03;2.92;;;1.70;;
15466;SDS011;7834;49.452;11.056;2023-07-20T12:38:29;3.88;;;1.50;;
15466;SDS011;7834;49.452;11.056;2023-07-20T12:40:59;3.88;;;1.80;;
15466;SDS011;7834;49.452;11.056;2023-07-20T12:43:26;1.58;;;1.40;;
15466;SDS011;7834;49.452;11.056;2023-07-20T12:45:52;2.22;;;1.70;;
15466;SDS011;7834;49.452;11.056;2023-07-20T12:48:18;1.52;;;1.40;;
15466;SDS011;7834;49.452;11.056;2023-07-20T12:50:44;1.88;;;1.70;;
15466;SDS011;7834;49.452;11.056;2023-07-20T12:53:10;4.03;;;1.95;;
15466;SDS011;7834;49.452;11.056;2023-07-20T12:55:37;2.42;;;1.92;;
15466;SDS011;7834;49.452;11.056;2023-07-20T12:58:04;1.60;;;1.50;;
15466;SDS011;7834;49.452;11.056;2023-07-20T13:00:30;2.70;;;1.80;;
15466;SDS011;7834;49.452;11.056;2023-07-20T13:02:57;2.92;;;1.90;;
15466;SDS011;7834;49.452;11.056;2023-07-20T13:05:23;2.00;;;1.90;;
15466;SDS011;7834;49.452;11.056;2023-07-20T13:07:49;2.75;;;1.90;;
15466;SDS011;7834;49.452;11.056;2023-07-20T13:10:15;2.58;;;2.35;;
15466;SDS011;7834;49.452;11.056;2023-07-20T13:12:41;2.80;;;1.70;;
15466;SDS011;7834;49.452;11.056;2023-07-20T13:15:08;2.50;;;1.98;;
15466;SDS011;7834;49.452;11.056;2023-07-20T13:17:34;2.13;;;1.80;;
15466;SDS011;7834;49.452;11.056;2023-07-20T13:20:01;2.47;;;1.67;;
15466;SDS011;7834;49.452;11.056;2023-07-20T13:22:29;2.03;;;1.70;;
15466;SDS011;7834;49.452;11.056;2023-07-20T13:24:55;4.25;;;2.10;;
15466;SDS011;7834;49.452;11.056;2023-07-20T13:27:21;2.60;;;2.08;;
15466;SDS011;7834;49.452;11.056;2023-07-20T13:29:51;1.90;;;1.80;;
15466;SDS011;7834;49.452;11.056;2023-07-20T13:32:17;2.17;;;1.60;;
15466;SDS011;7834;49.452;11.056;2023-07-20T13:34:44;3.17;;;2.00;;
15466;SDS011;7834;49.452;11.056;2023-07-20T13:37:10;2.05;;;1.83;;
15466;SDS011;7834;49.452;11.056;2023-07-20T13:39:36;1.90;;;1.75;;
15466;SDS011;7834;49.452;11.056;2023-07-20T13:42:03;2.88;;;2.00;;
15466;SDS011;7834;49.452;11.056;2023-07-20T13:44:30;1.85;;;1.75;;
15466;SDS011;7834;49.452;11.056;2023-07-20T13:46:56;1.83;;;1.73;;
15466;SDS011;7834;49.452;11.056;2023-07-20T13:49:22;2.33;;;2.10;;
15466;SDS011;7834;49.452;11.056;2023-07-20T13:51:49;3.95;;;1.70;;
15466;SDS011;7834;49.452;11.056;2023-07-20T13:54:15;3.35;;;3.05;;
15466;SDS011;7834;49.452;11.056;2023-07-20T13:56:41;1.80;;;1.70;;
15466;SDS011;7834;49.452;11.056;2023-07-20T13:59:08;2.47;;;2.20;;
15466;SDS011;7834;49.452;11.056;2023-07-20T14:01:34;2.10;;;1.90;;
15466;SDS011;7834;49.452;11.056;2023-07-20T14:04:00;1.98;;;1.85;;
15466;SDS011;7834;49.452;11.056;2023-07-20T14:06:29;3.17;;;2.25;;
15466;SDS011;7834;49.452;11.056;2023-07-20T14:08:55;2.70;;;2.25;;
15466;SDS011;7834;49.452;11.056;2023-07-20T14:11:22;3.70;;;3.40;;
15466;SDS011;7834;49.452;11.056;2023-07-20T14:13:48;2.25;;;2.05;;
15466;SDS011;7834;49.452;11.056;2023-07-20T14:16:14;4.85;;;1.98;;
15466;SDS011;7834;49.452;11.056;2023-07-20T14:18:40;1.80;;;1.70;;
15466;SDS011;7834;49.452;11.056;2023-07-20T14:21:06;2.33;;;1.85;;
15466;SDS011;7834;49.452;11.056;2023-07-20T14:23:33;3.38;;;2.00;;
15466;SDS011;7834;49.452;11.056;2023-07-20T14:25:59;2.47;;;1.80;;
15466;SDS011;7834;49.452;11.056;2023-07-20T14:28:25;3.00;;;2.00;;
15466;SDS011;7834;49.452;11.056;2023-07-20T14:30:51;3.42;;;1.80;;
15466;SDS011;7834;49.452;11.056;2023-07-20T14:33:18;2.03;;;1.90;;
15466;SDS011;7834;49.452;11.056;2023-07-20T14:35:44;2.10;;;1.77;;
15466;SDS011;7834;49.452;11.056;2023-07-20T14:38:10;2.83;;;2.10;;
15466;SDS011;7834;49.452;11.056;2023-07-20T14:40:36;2.25;;;1.90;;
15466;SDS011;7834;49.452;11.056;2023-07-20T14:43:02;2.20;;;1.70;;
15466;SDS011;7834;49.452;11.056;2023-07-20T14:45:28;1.95;;;1.70;;
15466;SDS011;7834;49.452;11.056;2023-07-20T14:47:54;3.22;;;1.70;;
15466;SDS011;7834;49.452;11.056;2023-07-20T14:50:20;2.65;;;1.60;;
15466;SDS011;7834;49.452;11.056;2023-07-20T14:52:46;3.70;;;2.00;;
15466;SDS011;7834;49.452;11.056;2023-07-20T14:55:13;2.50;;;2.15;;
15466;SDS011;7834;49.452;11.056;2023-07-20T14:57:39;2.03;;;1.88;;
15466;SDS011;7834;49.452;11.056;2023-07-20T15:00:05;3.85;;;1.92;;
15466;SDS011;7834;49.452;11.056;2023-07-20T15:02:35;1.85;;;1.70;;
15466;SDS011;7834;49.452;11.056;2023-07-20T15:05:02;3.08;;;2.00;;